createdAt,value
2023-05-08T00:01:04.228Z,79.80
2023-05-08T00:03:31.257Z,79.89
2023-05-08T00:05:57.877Z,79.97
2023-05-08T00:08:24.541Z,79.98
2023-05-08T00:10:51.164Z,79.78
2023-05-08T00:13:17.637Z,79.98
2023-05-08T00:15:44.172Z,80.22
2023-05-08T00:18:10.622Z,80.21
2023-05-08T00:20:37.808Z,80.17
2023-05-08T00:23:04.661Z,80.15
2023-05-08T00:25:31.972Z,80.18
2023-05-08T00:27:59.169Z,80.34
2023-05-08T00:30:25.782Z,80.41
2023-05-08T00:32:52.741Z,80.38
2023-05-08T00:35:19.611Z,80.36
2023-05-08T00:37:46.110Z,80.31
2023-05-08T00:40:12.723Z,80.41
2023-05-08T00:42:39.732Z,80.34
2023-05-08T00:45:06.827Z,80.40
2023-05-08T00:47:33.840Z,80.31
2023-05-08T00:50:01.075Z,79.97
2023-05-08T00:52:30.836Z,80.18
2023-05-08T00:54:57.725Z,80.08
2023-05-08T00:57:24.519Z,80.27
2023-05-08T00:59:52.520Z,80.12
2023-05-08T01:02:20.913Z,79.88
2023-05-08T01:04:48.194Z,80.17
2023-05-08T01:07:14.658Z,80.03
2023-05-08T01:09:41.246Z,80.05
2023-05-08T01:12:26.305Z,79.88
2023-05-08T01:15:14.699Z,80.10
2023-05-08T01:18:03.950Z,79.96
2023-05-08T01:20:48.749Z,79.96
2023-05-08T01:23:24.474Z,80.08
2023-05-08T01:26:09.118Z,80.23
2023-05-08T01:29:00.611Z,79.88
2023-05-08T01:31:55.791Z,80.09
2023-05-08T01:34:26.640Z,80.37
2023-05-08T01:37:05.359Z,79.92
2023-05-08T01:40:03.269Z,79.70
2023-05-08T01:42:44.834Z,80.08
2023-05-08T01:45:18.736Z,80.11
2023-05-08T01:47:51.714Z,79.83
2023-05-08T01:50:24.195Z,80.20
2023-05-08T01:52:57.309Z,80.43
2023-05-08T01:55:31.917Z,81.03
2023-05-08T01:57:59.524Z,80.74
2023-05-08T02:00:28.413Z,80.90
2023-05-08T02:02:56.384Z,80.71
2023-05-08T02:05:24.661Z,80.81
2023-05-08T02:07:52.281Z,81.21
2023-05-08T02:10:22.093Z,81.50
2023-05-08T02:12:49.936Z,81.31
2023-05-08T02:15:18.689Z,81.38
2023-05-08T02:17:48.848Z,80.96
2023-05-08T02:20:16.165Z,80.55
2023-05-08T02:22:44.548Z,80.44
2023-05-08T02:25:14.549Z,80.09
2023-05-08T02:27:46.531Z,80.17
2023-05-08T02:30:16.242Z,80.37
2023-05-08T02:32:44.989Z,80.13
2023-05-08T02:35:16.933Z,80.08
2023-05-08T02:37:46.738Z,80.35
2023-05-08T02:40:14.974Z,80.05
2023-05-08T02:42:41.817Z,80.42
2023-05-08T02:45:10.042Z,80.61
2023-05-08T02:47:47.777Z,80.47
2023-05-08T02:50:20.797Z,80.99
2023-05-08T02:52:52.052Z,80.98
2023-05-08T02:55:40.016Z,80.76
2023-05-08T02:58:18.884Z,80.88
2023-05-08T03:00:50.888Z,80.99
2023-05-08T03:03:27.425Z,80.86
2023-05-08T03:05:57.597Z,80.76
2023-05-08T03:08:28.223Z,81.00
2023-05-08T03:10:58.821Z,81.25
2023-05-08T03:13:28.936Z,81.31
2023-05-08T03:15:59.194Z,81.24
2023-05-08T03:18:36.170Z,81.45
2023-05-08T03:21:06.307Z,81.60
2023-05-08T03:23:36.015Z,81.48
2023-05-08T03:26:04.555Z,81.55
2023-05-08T03:28:32.459Z,81.93
2023-05-08T03:31:01.586Z,81.73
2023-05-08T03:33:29.482Z,82.14
2023-05-08T03:35:57.677Z,81.47
2023-05-08T03:38:24.182Z,81.12
2023-05-08T03:40:50.962Z,81.17
2023-05-08T03:43:19.380Z,81.06
2023-05-08T03:45:47.528Z,81.35
2023-05-08T03:48:15.331Z,81.57
2023-05-08T03:50:43.623Z,81.88
2023-05-08T03:53:10.347Z,81.67
2023-05-08T03:55:37.593Z,81.74
2023-05-08T03:58:28.478Z,81.62
2023-05-08T04:01:11.781Z,81.32
2023-05-08T04:04:03.418Z,81.46
2023-05-08T04:06:48.729Z,80.72
2023-05-08T04:09:31.256Z,80.80
2023-05-08T04:12:13.599Z,80.27
2023-05-08T04:14:49.481Z,80.50
2023-05-08T04:17:27.913Z,80.52
2023-05-08T04:20:00.771Z,81.17
2023-05-08T04:22:29.429Z,80.95
2023-05-08T04:24:59.383Z,80.76
2023-05-08T04:27:26.546Z,80.64
2023-05-08T04:29:54.216Z,80.81
2023-05-08T04:32:21.729Z,80.32
2023-05-08T04:34:48.334Z,80.46
2023-05-08T04:37:28.673Z,80.68
2023-05-08T04:39:58.729Z,80.63
2023-05-08T04:42:26.437Z,80.52
2023-05-08T04:44:54.948Z,80.34
2023-05-08T04:47:22.272Z,80.01
2023-05-08T04:49:48.944Z,80.16
2023-05-08T04:52:15.885Z,80.36
2023-05-08T04:54:42.308Z,80.15
2023-05-08T04:57:08.911Z,80.25
2023-05-08T04:59:35.495Z,80.38
2023-05-08T05:02:02.671Z,80.41
2023-05-08T05:04:30.296Z,80.10
2023-05-08T05:06:57.268Z,80.13
2023-05-08T05:09:25.281Z,79.89
2023-05-08T05:11:51.800Z,79.53
2023-05-08T05:14:18.542Z,79.64
2023-05-08T05:16:45.278Z,79.87
2023-05-08T05:19:11.782Z,79.39
2023-05-08T05:21:38.872Z,79.47
2023-05-08T05:24:06.385Z,79.78
2023-05-08T05:26:33.463Z,80.17
2023-05-08T05:29:00.813Z,80.43
2023-05-08T05:31:29.160Z,80.35
2023-05-08T05:33:56.350Z,80.32
2023-05-08T05:36:22.933Z,79.94
2023-05-08T05:38:49.886Z,79.34
2023-05-08T05:41:16.360Z,78.95
2023-05-08T05:43:42.851Z,78.95
2023-05-08T05:46:09.799Z,78.72
2023-05-08T05:48:37.882Z,78.23
2023-05-08T05:51:05.005Z,78.13
2023-05-08T05:53:31.783Z,77.84
2023-05-08T05:55:58.313Z,77.56
2023-05-08T05:58:24.779Z,77.72
2023-05-08T06:00:52.624Z,77.21
2023-05-08T06:03:19.231Z,77.36
2023-05-08T06:05:47.008Z,76.85
2023-05-08T06:08:13.518Z,76.77
2023-05-08T06:10:40.086Z,76.88
2023-05-08T06:13:06.513Z,77.28
2023-05-08T06:15:34.252Z,77.27
2023-05-08T06:18:01.004Z,76.69
2023-05-08T06:20:27.532Z,77.21
2023-05-08T06:22:54.060Z,76.72
2023-05-08T06:25:20.442Z,77.00
2023-05-08T06:27:46.896Z,77.08
2023-05-08T06:30:13.573Z,77.37
2023-05-08T06:32:40.251Z,77.29
2023-05-08T06:35:07.315Z,76.93
2023-05-08T06:37:33.776Z,76.10
2023-05-08T06:40:11.016Z,76.68
2023-05-08T06:42:39.226Z,76.49
2023-05-08T06:45:07.410Z,76.19
2023-05-08T06:47:33.877Z,75.81
2023-05-08T06:50:00.605Z,75.42
2023-05-08T06:52:27.104Z,74.85
2023-05-08T06:54:53.537Z,74.17
2023-05-08T06:57:19.930Z,74.26
2023-05-08T06:59:46.360Z,74.58
2023-05-08T07:02:12.852Z,74.25
2023-05-08T07:04:39.321Z,73.63
2023-05-08T07:07:06.761Z,72.76
2023-05-08T07:09:33.212Z,72.78
2023-05-08T07:11:59.633Z,71.92
2023-05-08T07:14:27.253Z,71.23
2023-05-08T07:16:54.398Z,72.16
2023-05-08T07:19:22.541Z,70.49
2023-05-08T07:21:49.352Z,70.26
2023-05-08T07:24:15.867Z,70.67
2023-05-08T07:26:42.314Z,70.18
2023-05-08T07:29:08.813Z,69.39
2023-05-08T07:31:35.356Z,69.32
2023-05-08T07:34:02.382Z,67.35
2023-05-08T07:36:28.848Z,68.40
2023-05-08T07:38:55.256Z,67.07
2023-05-08T07:41:21.730Z,67.67
2023-05-08T07:43:48.149Z,66.31
2023-05-08T07:46:18.569Z,66.92
2023-05-08T07:48:45.011Z,66.05
2023-05-08T07:51:11.978Z,65.51
2023-05-08T07:53:38.454Z,64.48
2023-05-08T07:56:05.635Z,64.32
2023-05-08T07:58:32.096Z,64.22
2023-05-08T08:00:58.552Z,61.83
2023-05-08T08:03:25.056Z,63.19
2023-05-08T08:05:51.595Z,63.19
2023-05-08T08:08:18.083Z,63.62
2023-05-08T08:10:44.534Z,63.97
2023-05-08T08:13:11.048Z,63.58
2023-05-08T08:15:37.499Z,64.36
2023-05-08T08:18:03.998Z,64.44
2023-05-08T08:20:30.470Z,64.73
2023-05-08T08:22:56.905Z,62.61
2023-05-08T08:25:23.415Z,62.37
2023-05-08T08:27:49.842Z,63.01
2023-05-08T08:30:17.981Z,63.87
2023-05-08T08:32:45.745Z,63.41
2023-05-08T08:35:13.226Z,62.68
2023-05-08T08:37:40.114Z,62.71
2023-05-08T08:40:07.395Z,61.18
2023-05-08T08:42:34.186Z,60.65
2023-05-08T08:45:01.162Z,61.00
2023-05-08T08:47:29.741Z,61.88
2023-05-08T08:49:58.905Z,61.91
2023-05-08T08:52:37.240Z,61.82
2023-05-08T08:55:08.034Z,61.82
2023-05-08T08:57:39.525Z,61.59
2023-05-08T09:00:08.173Z,60.45
2023-05-08T09:02:35.087Z,60.80
2023-05-08T09:05:03.009Z,61.09
2023-05-08T09:07:30.387Z,61.17
2023-05-08T09:09:56.926Z,59.55
2023-05-08T09:12:23.332Z,59.09
2023-05-08T09:14:50.924Z,59.83
2023-05-08T09:17:17.331Z,58.33
2023-05-08T09:19:44.266Z,58.87
2023-05-08T09:22:11.732Z,58.12
2023-05-08T09:24:58.089Z,58.54
2023-05-08T09:27:25.413Z,58.31
2023-05-08T09:30:08.690Z,57.18
2023-05-08T09:32:37.219Z,57.18
2023-05-08T09:35:05.205Z,58.71
2023-05-08T09:37:31.970Z,58.80
2023-05-08T09:40:20.981Z,59.64
2023-05-08T09:42:49.077Z,57.23
2023-05-08T09:45:31.881Z,57.82
2023-05-08T09:47:59.134Z,58.83
2023-05-08T09:50:25.756Z,58.10
2023-05-08T09:52:52.368Z,59.72
2023-05-08T09:55:19.206Z,59.95
2023-05-08T09:58:11.911Z,59.62
2023-05-08T10:00:39.606Z,61.38
2023-05-08T10:03:06.179Z,61.40
2023-05-08T10:05:36.348Z,61.85
2023-05-08T10:08:23.377Z,61.67
2023-05-08T10:10:50.249Z,62.25
2023-05-08T10:13:16.720Z,62.15
2023-05-08T10:15:44.236Z,63.46
2023-05-08T10:18:12.054Z,64.62
2023-05-08T10:20:41.404Z,65.68
2023-05-08T10:23:13.505Z,66.45
2023-05-08T10:25:48.077Z,67.24
2023-05-08T10:28:40.868Z,67.45
2023-05-08T10:31:11.552Z,67.43
2023-05-08T10:33:40.615Z,68.90
2023-05-08T10:36:09.623Z,71.40
2023-05-08T10:38:37.466Z,72.21
2023-05-08T10:41:04.385Z,72.64
2023-05-08T10:43:33.782Z,72.95
2023-05-08T10:46:09.298Z,73.31
2023-05-08T10:49:00.559Z,73.08
2023-05-08T10:51:41.726Z,72.19
2023-05-08T10:54:18.741Z,71.90
2023-05-08T10:56:45.282Z,70.38
2023-05-08T10:59:23.622Z,70.40
2023-05-08T11:01:50.562Z,69.62
2023-05-08T11:04:22.507Z,67.74
2023-05-08T11:06:52.848Z,66.00
2023-05-08T11:09:21.833Z,64.62
2023-05-08T11:12:21.259Z,63.94
2023-05-08T11:14:57.883Z,63.92
2023-05-08T11:17:25.600Z,62.96
2023-05-08T11:19:58.841Z,61.47
2023-05-08T11:22:33.104Z,60.90
2023-05-08T11:25:10.739Z,62.71
2023-05-08T11:27:39.877Z,61.85
2023-05-08T11:30:25.559Z,60.40
2023-05-08T11:33:04.701Z,61.61
2023-05-08T11:35:43.496Z,61.41
2023-05-08T11:38:21.692Z,61.97
2023-05-08T11:41:16.510Z,59.21
2023-05-08T11:43:51.906Z,59.86
2023-05-08T11:46:21.338Z,61.08
2023-05-08T11:48:48.281Z,58.39
2023-05-08T11:51:18.106Z,60.75
2023-05-08T11:53:44.786Z,61.45
2023-05-08T11:56:11.369Z,58.74
2023-05-08T11:58:37.887Z,57.79
2023-05-08T12:01:04.493Z,57.19
2023-05-08T12:03:31.214Z,57.82
2023-05-08T12:05:59.369Z,57.88
2023-05-08T12:08:26.258Z,58.94
2023-05-08T12:10:54.594Z,56.63
2023-05-08T12:13:26.275Z,55.68
2023-05-08T12:15:55.909Z,58.53
2023-05-08T12:18:23.737Z,59.80
2023-05-08T12:20:56.928Z,61.32
2023-05-08T12:23:25.528Z,60.67
2023-05-08T12:25:55.630Z,62.12
2023-05-08T12:28:22.588Z,63.81
2023-05-08T12:30:49.798Z,62.64
2023-05-08T12:33:17.681Z,62.19
2023-05-08T12:35:44.305Z,63.58
2023-05-08T12:38:11.945Z,65.43
2023-05-08T12:40:42.742Z,65.00
2023-05-08T12:43:09.526Z,66.26
2023-05-08T12:45:39.475Z,65.97
2023-05-08T12:48:15.440Z,65.48
2023-05-08T12:50:42.684Z,67.30
2023-05-08T12:53:11.256Z,67.28
2023-05-08T12:55:39.541Z,66.98
2023-05-08T12:58:14.297Z,66.77
2023-05-08T13:00:42.907Z,68.19
2023-05-08T13:03:11.572Z,67.41
2023-05-08T13:05:47.363Z,69.16
2023-05-08T13:08:13.825Z,70.04
2023-05-08T13:10:47.652Z,71.00
2023-05-08T13:13:15.893Z,71.41
2023-05-08T13:15:42.794Z,71.34
2023-05-08T13:18:09.608Z,71.86
2023-05-08T13:20:37.043Z,71.38
2023-05-08T13:23:04.303Z,71.37
2023-05-08T13:25:31.227Z,70.79
2023-05-08T13:28:00.497Z,71.44
2023-05-08T13:30:27.550Z,71.75
2023-05-08T13:32:54.242Z,72.31
2023-05-08T13:35:21.686Z,71.22
2023-05-08T13:37:48.600Z,72.05
2023-05-08T13:40:15.946Z,72.18
2023-05-08T13:42:42.545Z,71.51
2023-05-08T13:45:16.432Z,71.22
2023-05-08T13:47:43.223Z,71.33
2023-05-08T13:50:11.001Z,71.41
2023-05-08T13:52:38.615Z,70.56
2023-05-08T13:55:06.801Z,70.62
2023-05-08T13:57:33.542Z,71.29
2023-05-08T14:00:00.202Z,71.65
2023-05-08T14:02:27.553Z,71.54
2023-05-08T14:04:54.323Z,73.18
2023-05-08T14:07:20.808Z,73.58
2023-05-08T14:09:47.668Z,73.91
2023-05-08T14:12:14.449Z,73.40
2023-05-08T14:14:40.929Z,73.23
2023-05-08T14:17:07.940Z,73.58
2023-05-08T14:19:34.580Z,73.24
2023-05-08T14:22:01.221Z,73.02
2023-05-08T14:24:27.729Z,72.46
2023-05-08T14:26:54.870Z,71.74
2023-05-08T14:29:21.328Z,70.51
2023-05-08T14:31:47.760Z,71.44
2023-05-08T14:34:14.209Z,71.21
2023-05-08T14:36:40.691Z,71.33
2023-05-08T14:39:07.165Z,71.08
2023-05-08T14:41:33.907Z,71.12
2023-05-08T14:44:01.162Z,70.20
2023-05-08T14:46:27.619Z,70.02
2023-05-08T14:48:54.909Z,68.72
2023-05-08T14:51:22.700Z,69.49
2023-05-08T14:53:49.280Z,68.60
2023-05-08T14:56:16.216Z,67.87
2023-05-08T14:58:42.739Z,67.58
2023-05-08T15:01:09.162Z,66.92
2023-05-08T15:03:35.852Z,67.33
2023-05-08T15:06:02.397Z,66.11
2023-05-08T15:08:28.859Z,65.48
2023-05-08T15:10:55.300Z,66.50
2023-05-08T15:13:21.846Z,63.26
2023-05-08T15:15:48.326Z,61.19
2023-05-08T15:18:14.721Z,61.41
2023-05-08T15:20:41.128Z,59.46
2023-05-08T15:23:07.573Z,58.36
2023-05-08T15:25:34.021Z,57.90
2023-05-08T15:28:01.059Z,56.74
2023-05-08T15:30:27.790Z,57.10
2023-05-08T15:32:54.298Z,56.26
2023-05-08T15:35:20.781Z,53.43
2023-05-08T15:37:47.197Z,49.97
2023-05-08T15:40:13.696Z,46.06
2023-05-08T15:42:40.140Z,44.09
2023-05-08T15:45:07.015Z,45.66
2023-05-08T15:47:33.476Z,47.39
2023-05-08T15:49:59.993Z,48.26
2023-05-08T15:52:26.408Z,50.17
2023-05-08T15:54:52.861Z,51.08
2023-05-08T15:57:19.284Z,52.24
2023-05-08T15:59:45.712Z,51.89
2023-05-08T16:02:12.301Z,53.10
2023-05-08T16:04:38.766Z,54.31
2023-05-08T16:07:05.204Z,53.67
2023-05-08T16:09:31.631Z,53.48
2023-05-08T16:11:58.068Z,54.26
2023-05-08T16:14:24.501Z,54.81
2023-05-08T16:16:50.940Z,54.13
2023-05-08T16:19:17.382Z,54.62
2023-05-08T16:21:46.939Z,55.32
2023-05-08T16:24:13.951Z,55.08
2023-05-08T16:26:40.378Z,57.30
2023-05-08T16:29:07.024Z,56.81
2023-05-08T16:31:33.616Z,57.47
2023-05-08T16:34:00.131Z,57.24
2023-05-08T16:36:27.154Z,58.37
2023-05-08T16:38:53.926Z,57.21
2023-05-08T16:41:21.196Z,58.53
2023-05-08T16:43:47.610Z,56.78
2023-05-08T16:46:14.070Z,55.93
2023-05-08T16:48:41.367Z,57.54
2023-05-08T16:51:08.275Z,56.48
2023-05-08T16:53:34.719Z,52.60
2023-05-08T16:56:01.186Z,54.42
2023-05-08T16:58:27.807Z,52.36
2023-05-08T17:00:54.453Z,54.37
2023-05-08T17:03:21.077Z,54.88
2023-05-08T17:05:47.579Z,55.67
2023-05-08T17:08:14.011Z,56.77
2023-05-08T17:10:41.288Z,57.51
2023-05-08T17:13:07.780Z,58.88
2023-05-08T17:15:34.204Z,61.50
2023-05-08T17:18:00.775Z,63.20
2023-05-08T17:20:27.297Z,63.80
2023-05-08T17:22:54.222Z,63.94
2023-05-08T17:25:22.691Z,64.76
2023-05-08T17:27:49.256Z,63.73
2023-05-08T17:30:16.776Z,64.19
2023-05-08T17:32:43.365Z,64.55
2023-05-08T17:35:10.446Z,65.32
2023-05-08T17:37:37.209Z,64.90
2023-05-08T17:40:03.838Z,65.80
2023-05-08T17:42:30.365Z,66.18
2023-05-08T17:44:56.873Z,66.44
2023-05-08T17:47:23.322Z,66.46
2023-05-08T17:49:49.813Z,67.36
2023-05-08T17:52:16.262Z,67.61
2023-05-08T17:54:42.753Z,67.81
2023-05-08T17:57:09.175Z,68.49
2023-05-08T17:59:35.597Z,67.28
2023-05-08T18:02:02.056Z,68.67
2023-05-08T18:04:28.506Z,69.23
2023-05-08T18:06:54.973Z,69.64
2023-05-08T18:09:21.431Z,69.96
2023-05-08T18:11:47.836Z,70.51
2023-05-08T18:14:14.248Z,70.69
2023-05-08T18:16:40.674Z,71.12
2023-05-08T18:19:07.115Z,71.88
2023-05-08T18:21:33.525Z,71.84
2023-05-08T18:23:59.978Z,72.06
2023-05-08T18:26:26.425Z,72.46
2023-05-08T18:28:52.948Z,72.37
2023-05-08T18:31:19.386Z,72.47
2023-05-08T18:33:45.863Z,72.65
2023-05-08T18:36:12.329Z,72.75
2023-05-08T18:38:40.907Z,73.37
2023-05-08T18:41:07.398Z,73.54
2023-05-08T18:43:33.893Z,73.69
2023-05-08T18:46:00.668Z,74.48
2023-05-08T18:48:27.399Z,74.56
2023-05-08T18:50:55.791Z,74.37
2023-05-08T18:53:22.244Z,74.78
2023-05-08T18:55:48.663Z,75.13
2023-05-08T18:58:15.077Z,75.30
2023-05-08T19:00:41.600Z,75.39
2023-05-08T19:03:08.211Z,75.15
2023-05-08T19:05:34.818Z,75.31
2023-05-08T19:08:01.235Z,75.63
2023-05-08T19:10:27.727Z,75.62
2023-05-08T19:12:54.197Z,75.74
2023-05-08T19:15:20.733Z,76.08
2023-05-08T19:17:47.210Z,76.48
2023-05-08T19:20:13.999Z,76.88
2023-05-08T19:22:40.694Z,76.97
2023-05-08T19:25:07.363Z,77.34
2023-05-08T19:27:33.798Z,77.34
2023-05-08T19:30:00.249Z,77.53
2023-05-08T19:32:27.615Z,77.28
2023-05-08T19:34:57.235Z,77.50
2023-05-08T19:37:24.523Z,76.95
2023-05-08T19:39:50.928Z,76.79
2023-05-08T19:42:17.441Z,76.84
2023-05-08T19:44:43.992Z,76.30
2023-05-08T19:47:10.527Z,76.34
2023-05-08T19:49:37.136Z,76.91
2023-05-08T19:52:03.991Z,77.21
2023-05-08T19:54:30.834Z,77.05
2023-05-08T19:56:57.677Z,77.28
2023-05-08T19:59:24.153Z,77.14
2023-05-08T20:01:50.836Z,77.61
2023-05-08T20:04:17.381Z,77.79
2023-05-08T20:06:43.838Z,78.15
2023-05-08T20:09:10.376Z,78.62
2023-05-08T20:11:36.771Z,78.27
2023-05-08T20:14:03.187Z,78.62
2023-05-08T20:16:29.637Z,78.24
2023-05-08T20:18:56.096Z,78.48
2023-05-08T20:21:22.507Z,78.39
2023-05-08T20:23:49.093Z,78.24
2023-05-08T20:26:15.589Z,78.32
2023-05-08T20:28:42.029Z,78.42
2023-05-08T20:31:08.484Z,77.65
2023-05-08T20:33:34.966Z,77.59
2023-05-08T20:36:01.407Z,77.86
2023-05-08T20:38:27.815Z,78.27
2023-05-08T20:40:56.977Z,78.21
2023-05-08T20:43:25.885Z,78.01
2023-05-08T20:45:52.327Z,77.89
2023-05-08T20:48:18.759Z,78.48
2023-05-08T20:50:48.093Z,78.42
2023-05-08T20:53:14.507Z,78.33
2023-05-08T20:55:40.912Z,78.35
2023-05-08T20:58:09.032Z,78.39
2023-05-08T21:00:36.098Z,78.69
2023-05-08T21:03:03.082Z,78.31
2023-05-08T21:05:29.577Z,78.15
2023-05-08T21:07:59.865Z,78.55
2023-05-08T21:10:30.499Z,78.09
2023-05-08T21:12:57.010Z,77.86
2023-05-08T21:15:23.446Z,77.95
2023-05-08T21:17:50.561Z,78.08
2023-05-08T21:20:17.316Z,78.73
2023-05-08T21:22:46.024Z,79.08
2023-05-08T21:25:16.115Z,79.05
2023-05-08T21:27:43.571Z,79.26
2023-05-08T21:30:15.023Z,79.16
2023-05-08T21:32:45.524Z,78.94
2023-05-08T21:35:12.544Z,78.79
2023-05-08T21:37:39.713Z,79.05
2023-05-08T21:40:06.886Z,79.01
2023-05-08T21:42:33.347Z,79.19
2023-05-08T21:44:59.747Z,79.65
2023-05-08T21:47:27.960Z,79.51
2023-05-08T21:49:54.977Z,79.65
2023-05-08T21:52:22.485Z,79.48
2023-05-08T21:54:49.965Z,79.69
2023-05-08T21:57:16.644Z,79.95
2023-05-08T21:59:43.116Z,80.00
2023-05-08T22:02:09.761Z,79.52
2023-05-08T22:04:36.390Z,79.67
2023-05-08T22:07:02.976Z,79.85
2023-05-08T22:09:29.401Z,80.15
2023-05-08T22:11:55.824Z,80.06
2023-05-08T22:14:22.298Z,79.33
2023-05-08T22:16:49.595Z,79.45
2023-05-08T22:19:16.338Z,79.45
2023-05-08T22:21:42.891Z,79.02
2023-05-08T22:24:09.360Z,78.95
2023-05-08T22:26:35.745Z,78.99
2023-05-08T22:29:02.180Z,79.04
2023-05-08T22:31:28.654Z,79.13
2023-05-08T22:33:55.062Z,79.02
2023-05-08T22:36:23.791Z,78.77
2023-05-08T22:38:50.488Z,78.50
2023-05-08T22:41:17.037Z,78.80
2023-05-08T22:43:43.577Z,78.71
2023-05-08T22:46:10.448Z,79.06
2023-05-08T22:48:37.472Z,79.09
2023-05-08T22:51:04.377Z,78.95
2023-05-08T22:53:30.909Z,79.48
2023-05-08T22:55:57.359Z,79.12
2023-05-08T22:58:25.169Z,79.08
2023-05-08T23:00:51.908Z,79.17
2023-05-08T23:03:18.496Z,79.79
2023-05-08T23:05:44.954Z,79.12
2023-05-08T23:08:11.394Z,79.21
2023-05-08T23:10:37.843Z,79.41
2023-05-08T23:13:04.314Z,79.51
2023-05-08T23:15:30.784Z,79.27
2023-05-08T23:17:57.349Z,79.68
2023-05-08T23:20:23.946Z,79.65
2023-05-08T23:22:50.434Z,80.02
2023-05-08T23:25:17.196Z,80.08
2023-05-08T23:27:43.712Z,79.52
2023-05-08T23:30:13.151Z,79.63
2023-05-08T23:32:40.141Z,79.87
2023-05-08T23:35:07.185Z,79.86
2023-05-08T23:37:33.620Z,80.09
2023-05-08T23:40:00.095Z,79.87
2023-05-08T23:42:27.153Z,79.64
2023-05-08T23:44:53.853Z,80.01
2023-05-08T23:47:20.954Z,80.38
2023-05-08T23:49:47.506Z,80.53
2023-05-08T23:52:14.085Z,80.57
2023-05-08T23:54:40.516Z,80.90
2023-05-08T23:57:07.033Z,80.83
2023-05-08T23:59:33.574Z,80.74
